Terminal Aerodrome Forecast
Issued by NWS

Home | Current Version | Previous Version | Text Only | Print | Product List | Glossary On
Versions: 1 2 3 4 5 6 7 8 9 10 11 12 13 14 15 16 17 18 19 20 21 22 23
000
FTUS43 KGRB 020500
TAFATW
TAF
KATW 020520Z 0206/0306 20015G25KT P6SM BKN100 WS010/21040KT
     FM021300 24009KT P6SM BKN035 OVC060
     FM021500 29009G15KT 6SM -SHRA BR SCT020 OVC035
     FM021900 29013G20KT P6SM SCT080 BKN200
     FM022100 28014G22KT P6SM SCT250=

USA.gov is the U.S. government's official web portal to all federal, state and local government web resources and services.